Airfield :
LOGIN :

Register | Disclaimer

   EN    FR    IT 

 










Legend :    VFR   Marginal VFR   IFR   Intensive IFR   Very Intensive IFR
Visi :
Ceiling :
>= 8 km
>= 3000ft
5 to 8 km
1000 to 3000 ft
1500m to 5 km
500 to 1000 ft
800 to 1500m
200 to 500 ft
< 800m
< 200 ft
Symbols :   Thunderstorms  Fog  Heavy snow  Heavy precipitations  Wind > 20 kt
SIGMETs :     Misc.  Thunderstorms  Icing  Turbulence  Mountain Waves  Volcanic Ashes






- Airport Elevation : 135 ft
- IATA code : TLV


LLBG - Ben Gurion

CURRENT METAR :
  • 200750Z 18008KT 9999 SCT017 BKN050 12/10 Q1024 TEMPO 8000 RA FEW015 BKN025

EXPIRED METARs :
  • 200720Z 17006KT 9999 FEW013 SCT017 BKN047 12/10 Q1024 TEMPO 8000 RA FEW015 BKN025
  • 200650Z 16006KT 6000 FEW011 FEW018TCU BKN025 12/10 Q1024 RERA NOSIG
  • 200620Z 28007KT 3000 RA FEW006 FEW018TCU BKN020 11/10 Q1023 NOSIG
  • 200550Z 18011KT 9000 FEW033 12/10 Q1023 TEMPO 3000 RA SCT005 FEW015TCU BKN025 RMK SCT064 BKN079 RERA
  • 200520Z 19008KT 7000 -RA FEW006 SCT021 11/10 Q1023 RERA TEMPO 3000 RA SCT005 BKN015 RMK BKN060

TAF TAF LLBG
Valid from the 20 at 06:00 until the 21 at 06:00 UTC


200505Z 2006/2106 19010KT 9999 SCT030
TEMPO 2006/2011 23015KT 5000 RA FEW015 FEW020TCU BKN025
BECMG 2011/2013 26013KT
TEMPO 2013/2023 24006KT 8000 RA FEW020TCU BKN025
BECMG 2023/2101 31007KT 8000 FEW015 SCT020
PROB40 2101/2106 VRB04KT 6000 -RA SCT010 BKN025 TX14/2012Z TN09/2104Z



MET'MAP, your aeronautical weather chart ! - Copyright ORBIFLY December 2007 - Disclaimer

ORBIFLY MET'MAP TEAM :

Programming & Development : Alexandra Zaïnal
Concept & original design : Baudouin d'Aumeries
Assistance for programming : Marc-Olivier Méhu
Technical & hardware support : Manuel Goepfert

Contact : metmap@orbifly.com




SOURCES & CREDITS :

   NOAA